Time;durP1;ratioP1;P1;durP2;ratioP2;P2;SDS_P1;SDS_P2;PMS_P1;PMS_P2;Temp;Humidity;BMP_temperature;BMP_pressure;BME280_temperature;BME280_humidity;BME280_pressure;Samples;Min_cycle;Max_cycle;Signal;HPM_P1;HPM_P2
2022/09/02 00:01:25;;;;;;;6.00;3.10;;;12.60;96.30;;;;;;5105931;28;20189;-87
2022/09/02 00:03:55;;;;;;;3.92;3.10;;;12.60;96.30;;;;;;5105740;28;20219;-87
2022/09/02 00:06:24;;;;;;;5.75;3.50;;;12.50;96.30;;;;;;5104189;28;20212;-87
2022/09/02 00:08:52;;;;;;;4.43;3.40;;;12.50;96.40;;;;;;5106190;28;20204;-86
2022/09/02 00:11:22;;;;;;;4.07;3.17;;;12.50;96.40;;;;;;5093389;28;20644;-86
2022/09/02 00:13:52;;;;;;;3.90;2.95;;;12.40;96.80;;;;;;5105196;28;20196;-86
2022/09/02 00:16:19;;;;;;;5.95;3.13;;;12.50;96.80;;;;;;5103084;28;20197;-86
2022/09/02 00:19:05;;;;;;;3.72;3.10;;;12.40;97.10;;;;;;5106518;28;20215;-87
2022/09/02 00:21:35;;;;;;;3.63;3.10;;;12.40;97.10;;;;;;5102916;28;20214;-86
2022/09/02 00:24:06;;;;;;;3.70;3.40;;;12.30;97.10;;;;;;5103186;28;20218;-86
2022/09/02 00:26:33;;;;;;;4.32;2.90;;;12.30;97.10;;;;;;5100133;28;20197;-86
2022/09/02 00:29:04;;;;;;;4.68;3.35;;;12.20;97.30;;;;;;5099512;28;20193;-86
2022/09/02 00:31:32;;;;;;;4.80;3.13;;;12.20;97.40;;;;;;5109887;28;20203;-86
2022/09/02 00:33:59;;;;;;;3.30;3.00;;;12.20;97.60;;;;;;5094938;28;20223;-86
2022/09/02 00:36:35;;;;;;;5.10;3.00;;;12.20;97.70;;;;;;5105260;28;20254;-86
2022/09/02 00:39:15;;;;;;;5.43;3.10;;;12.20;97.60;;;;;;5100983;28;20671;-87
2022/09/02 00:41:45;;;;;;;4.25;2.95;;;12.20;97.70;;;;;;5102154;28;20204;-86
2022/09/02 00:44:14;;;;;;;5.72;2.85;;;12.20;97.80;;;;;;5096449;28;20566;-86
2022/09/02 00:46:57;;;;;;;4.70;3.30;;;12.20;97.70;;;;;;5103136;28;20196;-86
2022/09/02 00:49:30;;;;;;;3.20;3.00;;;12.10;97.90;;;;;;5105290;28;20196;-86
2022/09/02 00:52:02;;;;;;;4.10;3.08;;;12.10;97.90;;;;;;5101374;28;20226;-86
2022/09/02 00:54:32;;;;;;;4.75;3.30;;;12.10;97.90;;;;;;5103203;28;20216;-86
2022/09/02 00:57:01;;;;;;;3.58;3.20;;;12.00;98.10;;;;;;5097505;28;20540;-86
2022/09/02 00:59:39;;;;;;;4.15;3.53;;;12.00;98.30;;;;;;5102035;28;20627;-86
2022/09/02 01:02:16;;;;;;;4.13;3.38;;;12.00;98.20;;;;;;5099595;28;20199;-86
2022/09/02 01:04:46;;;;;;;4.97;3.40;;;12.00;98.40;;;;;;5098225;28;20201;-86
2022/09/02 01:07:14;;;;;;;5.22;3.40;;;12.00;98.10;;;;;;5086456;28;20207;-86
2022/09/02 01:09:41;;;;;;;4.60;3.33;;;12.00;98.10;;;;;;5094556;28;20284;-86
2022/09/02 01:12:11;;;;;;;4.25;3.45;;;12.00;98.20;;;;;;5105260;28;20192;-86
2022/09/02 01:14:38;;;;;;;6.78;3.42;;;12.00;98.20;;;;;;5102905;28;20225;-86
2022/09/02 01:17:06;;;;;;;7.88;3.30;;;12.00;98.30;;;;;;5099017;28;20247;-86
2022/09/02 01:19:43;;;;;;;5.72;3.63;;;12.00;98.20;;;;;;5092116;28;20200;-86
2022/09/02 01:22:18;;;;;;;4.90;3.60;;;12.10;98.30;;;;;;5098106;28;20201;-86
2022/09/02 01:24:45;;;;;;;5.05;3.40;;;12.00;98.50;;;;;;5102007;28;20192;-86
2022/09/02 01:27:15;;;;;;;5.85;3.50;;;12.00;98.70;;;;;;5095983;28;20280;-86
2022/09/02 01:29:43;;;;;;;5.93;3.30;;;12.10;98.30;;;;;;5103800;28;20200;-86
2022/09/02 01:32:10;;;;;;;6.25;3.17;;;12.00;98.10;;;;;;5098365;28;20189;-86
2022/09/02 01:34:37;;;;;;;5.80;3.50;;;12.10;98.20;;;;;;5101752;28;20207;-86
2022/09/02 01:37:04;;;;;;;5.65;3.58;;;12.00;98.40;;;;;;5102953;28;20275;-86
2022/09/02 01:39:32;;;;;;;4.90;3.50;;;12.10;98.30;;;;;;5102140;28;20202;-86
2022/09/02 01:41:59;;;;;;;6.40;3.38;;;12.00;98.20;;;;;;5099076;28;20188;-86
2022/09/02 01:44:27;;;;;;;3.80;3.50;;;12.00;98.20;;;;;;5099188;28;20778;-87
2022/09/02 01:46:54;;;;;;;4.82;3.67;;;12.00;98.10;;;;;;5100030;28;20200;-86
2022/09/02 01:49:27;;;;;;;5.93;3.70;;;12.00;98.10;;;;;;5105738;28;20199;-86
2022/09/02 01:51:55;;;;;;;5.47;3.38;;;12.00;98.20;;;;;;5099835;28;20204;-87
2022/09/02 01:54:28;;;;;;;3.92;3.53;;;12.00;98.50;;;;;;5097172;28;20830;-86
2022/09/02 01:56:59;;;;;;;5.43;3.95;;;12.00;98.20;;;;;;5103488;28;20205;-87
2022/09/02 01:59:26;;;;;;;4.07;3.67;;;12.00;98.40;;;;;;5099456;28;20252;-87
2022/09/02 02:01:58;;;;;;;5.57;3.90;;;11.90;98.50;;;;;;5107270;28;20208;-87
2022/09/02 02:04:24;;;;;;;8.55;4.07;;;11.90;98.50;;;;;;5095058;28;20224;-86
2022/09/02 02:06:52;;;;;;;5.25;4.10;;;11.90;98.60;;;;;;5098708;28;20208;-86
2022/09/02 02:09:19;;;;;;;6.20;3.97;;;11.90;98.80;;;;;;5099035;28;20189;-86
2022/09/02 02:11:47;;;;;;;5.32;4.45;;;11.90;98.70;;;;;;5100056;28;20185;-86
2022/09/02 02:14:16;;;;;;;4.30;3.78;;;11.90;98.70;;;;;;5101123;28;20196;-86
2022/09/02 02:16:43;;;;;;;7.43;4.22;;;11.90;98.60;;;;;;5097054;28;20192;-87
2022/09/02 02:19:09;;;;;;;4.40;4.00;;;11.80;98.80;;;;;;5095122;28;20196;-86
2022/09/02 02:21:40;;;;;;;6.90;3.67;;;11.80;98.80;;;;;;5096608;28;20916;-86
2022/09/02 02:24:17;;;;;;;5.55;4.55;;;11.70;98.90;;;;;;5093970;28;20227;-86
2022/09/02 02:26:43;;;;;;;4.63;4.20;;;11.80;99.00;;;;;;5090016;28;20658;-86
2022/09/02 02:29:17;;;;;;;4.60;4.13;;;11.70;98.80;;;;;;5082651;28;20189;-86
2022/09/02 02:31:44;;;;;;;4.78;4.35;;;11.70;98.90;;;;;;5086637;28;20197;-86
2022/09/02 02:34:11;;;;;;;6.57;4.55;;;11.70;99.00;;;;;;5100510;28;20197;-86
2022/09/02 02:36:38;;;;;;;4.32;3.92;;;11.60;99.00;;;;;;5101551;28;20206;-87
2022/09/02 02:39:08;;;;;;;5.10;4.60;;;11.60;99.10;;;;;;5099330;28;20189;-86
2022/09/02 02:41:41;;;;;;;5.68;4.05;;;11.60;99.20;;;;;;5109564;28;20195;-86
2022/09/02 02:44:09;;;;;;;4.88;4.38;;;11.60;99.30;;;;;;5097354;28;20231;-86
2022/09/02 02:46:37;;;;;;;4.10;3.70;;;11.60;99.20;;;;;;5098778;28;20193;-86
2022/09/02 02:49:05;;;;;;;4.82;4.38;;;11.50;99.00;;;;;;5099435;28;20275;-86
2022/09/02 02:51:34;;;;;;;4.40;4.00;;;11.40;99.20;;;;;;5093983;28;20189;-86
2022/09/02 02:54:02;;;;;;;4.43;4.03;;;11.40;99.40;;;;;;5097606;28;20197;-86
2022/09/02 02:56:29;;;;;;;7.05;4.68;;;11.40;99.40;;;;;;5091935;28;20268;-87
2022/09/02 02:59:02;;;;;;;5.13;4.65;;;11.40;99.50;;;;;;5096387;28;20254;-87
2022/09/02 03:01:41;;;;;;;4.30;3.90;;;11.30;99.80;;;;;;5094641;28;20197;-86
2022/09/02 03:04:08;;;;;;;4.78;4.30;;;11.30;99.80;;;;;;5096228;28;20204;-86
2022/09/02 03:06:35;;;;;;;5.72;4.45;;;11.30;99.80;;;;;;5100576;28;20201;-86
2022/09/02 03:09:04;;;;;;;4.57;4.18;;;11.20;99.80;;;;;;5098714;28;20533;-86
2022/09/02 03:11:31;;;;;;;4.60;4.20;;;11.20;99.90;;;;;;5097677;28;20677;-87
2022/09/02 03:13:58;;;;;;;4.70;4.30;;;11.20;99.90;;;;;;5096210;28;20288;-87
2022/09/02 03:16:28;;;;;;;5.97;4.38;;;11.20;99.90;;;;;;5098725;28;20197;-86
2022/09/02 03:18:59;;;;;;;5.82;4.45;;;11.20;99.90;;;;;;5084147;28;20253;-86
2022/09/02 03:21:26;;;;;;;5.20;4.70;;;11.20;99.90;;;;;;5098655;28;20197;-86
2022/09/02 03:23:53;;;;;;;6.13;4.68;;;11.30;99.90;;;;;;5100375;28;20216;-87
2022/09/02 03:26:24;;;;;;;5.07;4.13;;;11.30;99.90;;;;;;5097603;28;20211;-86
2022/09/02 03:28:54;;;;;;;4.82;4.40;;;11.40;99.70;;;;;;5097030;28;20188;-87
2022/09/02 03:31:29;;;;;;;7.93;4.32;;;11.30;99.60;;;;;;5098844;28;20231;-86
2022/09/02 03:33:56;;;;;;;4.50;4.10;;;11.30;99.70;;;;;;5091056;28;20199;-87
2022/09/02 03:36:26;;;;;;;4.90;4.40;;;11.20;99.70;;;;;;5092916;28;20220;-87
2022/09/02 03:38:54;;;;;;;4.97;4.28;;;11.10;99.70;;;;;;5090866;28;20196;-86
2022/09/02 03:41:28;;;;;;;6.55;4.38;;;11.10;99.90;;;;;;5096978;28;20200;-86
2022/09/02 03:43:55;;;;;;;7.10;4.78;;;11.10;99.90;;;;;;5099149;28;20228;-87
2022/09/02 03:46:21;;;;;;;6.00;4.30;;;11.00;99.90;;;;;;5102218;28;20246;-86
2022/09/02 03:48:50;;;;;;;5.60;4.95;;;11.00;99.90;;;;;;5089463;28;20208;-87
2022/09/02 03:51:25;;;;;;;6.47;4.30;;;11.00;99.90;;;;;;5099536;28;20286;-87
2022/09/02 03:53:52;;;;;;;6.82;4.70;;;11.00;99.90;;;;;;5087230;28;20203;-86
2022/09/02 03:56:20;;;;;;;5.22;4.63;;;11.00;99.90;;;;;;5100147;28;20288;-86
2022/09/02 03:58:52;;;;;;;5.65;4.75;;;11.00;99.90;;;;;;5100136;28;20199;-86
2022/09/02 04:01:25;;;;;;;6.07;4.57;;;11.00;99.90;;;;;;5099124;28;20184;-87
2022/09/02 04:03:52;;;;;;;5.63;4.32;;;10.90;99.90;;;;;;5097117;28;20207;-86
2022/09/02 04:06:24;;;;;;;7.55;4.57;;;10.90;99.90;;;;;;5094704;28;20205;-86
2022/09/02 04:08:51;;;;;;;4.93;4.47;;;10.90;99.90;;;;;;5095779;28;20200;-86
2022/09/02 04:11:21;;;;;;;4.82;4.25;;;11.00;99.90;;;;;;5094510;28;20309;-86
2022/09/02 04:13:58;;;;;;;4.85;4.45;;;10.90;99.90;;;;;;5094938;28;20201;-86
2022/09/02 04:16:27;;;;;;;5.20;4.70;;;10.90;99.90;;;;;;5091648;28;20205;-87
2022/09/02 04:18:54;;;;;;;4.60;4.20;;;10.90;99.90;;;;;;5097640;28;20197;-86
2022/09/02 04:21:21;;;;;;;5.10;4.60;;;10.90;99.90;;;;;;5083409;28;20599;-87
2022/09/02 04:23:53;;;;;;;4.70;4.22;;;10.90;99.90;;;;;;5094649;28;20220;-87
2022/09/02 04:26:21;;;;;;;4.88;4.38;;;10.90;99.90;;;;;;5090977;28;20196;-86
2022/09/02 04:28:49;;;;;;;5.28;4.60;;;10.80;99.90;;;;;;5094628;28;20216;-86
2022/09/02 04:31:18;;;;;;;5.32;4.18;;;10.80;99.90;;;;;;5092990;28;20303;-86
2022/09/02 04:33:46;;;;;;;5.13;4.50;;;10.80;99.90;;;;;;5094715;28;20212;-87
2022/09/02 04:36:15;;;;;;;9.57;5.00;;;10.80;99.90;;;;;;5085041;28;20204;-87
2022/09/02 04:38:54;;;;;;;9.38;4.43;;;10.80;99.90;;;;;;5096819;28;20207;-86
2022/09/02 04:41:24;;;;;;;4.47;4.07;;;10.90;99.90;;;;;;5095397;28;20192;-87
2022/09/02 04:43:52;;;;;;;7.20;4.65;;;10.90;99.90;;;;;;5097425;28;20236;-86
2022/09/02 04:46:19;;;;;;;6.15;4.65;;;10.90;99.90;;;;;;5094941;28;20201;-87
2022/09/02 04:48:47;;;;;;;6.07;5.47;;;10.90;99.90;;;;;;5092426;28;20749;-87
2022/09/02 04:51:16;;;;;;;5.47;4.70;;;10.80;99.90;;;;;;5099433;28;20196;-87
2022/09/02 04:53:44;;;;;;;5.45;4.95;;;10.80;99.90;;;;;;5093166;28;20275;-86
2022/09/02 04:56:15;;;;;;;6.07;5.25;;;10.80;99.90;;;;;;5097907;28;20767;-87
2022/09/02 04:58:43;;;;;;;7.10;5.75;;;10.80;99.90;;;;;;5095379;28;20208;-86
2022/09/02 05:01:12;;;;;;;6.65;5.07;;;10.90;99.90;;;;;;5099801;28;20196;-87
2022/09/02 05:03:40;;;;;;;5.78;5.18;;;10.90;99.90;;;;;;5096820;28;20232;-87
2022/09/02 05:06:09;;;;;;;5.40;4.90;;;11.00;99.90;;;;;;5095009;28;20201;-87
2022/09/02 05:08:36;;;;;;;6.28;5.00;;;11.00;99.90;;;;;;5100026;28;20564;-86
2022/09/02 05:11:05;;;;;;;6.53;5.50;;;11.10;99.90;;;;;;5100779;28;20197;-87
2022/09/02 05:13:34;;;;;;;5.90;5.28;;;11.10;99.90;;;;;;5091055;28;20207;-86
2022/09/02 05:16:04;;;;;;;5.55;5.00;;;11.10;99.90;;;;;;5094198;28;20207;-87
2022/09/02 05:18:31;;;;;;;7.15;5.65;;;11.20;99.90;;;;;;5098279;28;20208;-87
2022/09/02 05:20:57;;;;;;;6.13;5.45;;;11.30;99.90;;;;;;5098656;28;20209;-87
2022/09/02 05:23:28;;;;;;;8.07;5.68;;;11.30;99.90;;;;;;5096908;28;20201;-86
2022/09/02 05:25:54;;;;;;;7.00;5.68;;;11.30;99.90;;;;;;5096019;28;20200;-86
2022/09/02 05:28:21;;;;;;;6.18;5.57;;;11.40;99.90;;;;;;5097975;28;20212;-87
2022/09/02 05:30:50;;;;;;;6.35;5.47;;;11.50;99.90;;;;;;5096617;28;20200;-86
2022/09/02 05:33:17;;;;;;;8.02;6.15;;;11.50;99.90;;;;;;5095067;28;20204;-86
2022/09/02 05:35:44;;;;;;;6.75;5.97;;;11.60;99.90;;;;;;5098066;28;20200;-87
2022/09/02 05:38:11;;;;;;;6.97;6.07;;;11.60;99.90;;;;;;5093794;28;20677;-86
2022/09/02 05:40:46;;;;;;;8.10;5.93;;;11.70;99.90;;;;;;5099298;28;20200;-85
2022/09/02 05:43:12;;;;;;;6.47;5.88;;;11.70;99.90;;;;;;5094962;28;20235;-86
2022/09/02 05:45:59;;;;;;;7.65;6.13;;;11.80;99.90;;;;;;5094298;28;20231;-87
2022/09/02 05:51:16;;;;;;;7.22;5.75;;;11.90;99.90;;;;;;5095571;28;20203;-86
2022/09/02 05:53:46;;;;;;;5.95;5.45;;;12.00;99.80;;;;;;5095661;28;20622;-86
2022/09/02 05:56:15;;;;;;;5.95;5.45;;;12.10;99.70;;;;;;5083406;28;20209;-86
2022/09/02 05:58:41;;;;;;;6.75;5.80;;;12.20;99.30;;;;;;5095461;28;20211;-85
2022/09/02 06:01:23;;;;;;;5.78;5.25;;;12.30;99.10;;;;;;5097224;28;20189;-86
2022/09/02 06:03:52;;;;;;;7.50;5.15;;;12.40;99.00;;;;;;5098421;28;20599;-86
2022/09/02 06:06:21;;;;;;;7.82;5.72;;;12.50;98.90;;;;;;5095193;28;20286;-86
2022/09/02 06:08:59;;;;;;;5.93;5.18;;;12.60;98.70;;;;;;5093646;28;20197;-86
2022/09/02 06:11:27;;;;;;;11.15;5.50;;;12.60;98.60;;;;;;5092980;28;20637;-86
2022/09/02 06:13:54;;;;;;;6.32;5.65;;;12.60;98.70;;;;;;5098913;28;20199;-86
2022/09/02 06:16:25;;;;;;;6.95;5.28;;;12.70;98.60;;;;;;5085392;28;20204;-88
2022/09/02 06:19:05;;;;;;;9.57;5.57;;;12.80;98.70;;;;;;5100832;28;20205;-87
2022/09/02 06:24:54;;;;;;;5.85;5.00;;;13.00;97.70;;;;;;5092163;28;20583;-87
2022/09/02 06:27:21;;;;;;;8.30;5.50;;;13.10;97.30;;;;;;5094916;28;20275;-86
2022/09/02 06:29:48;;;;;;;5.85;5.10;;;13.20;97.20;;;;;;5102992;28;20204;-87
2022/09/02 06:32:16;;;;;;;5.53;5.03;;;13.20;97.30;;;;;;5106073;28;20267;-86
2022/09/02 06:34:43;;;;;;;5.03;4.55;;;13.30;97.00;;;;;;5099565;28;20227;-86
2022/09/02 06:37:10;;;;;;;5.75;4.60;;;13.40;96.90;;;;;;5106352;28;20207;-87
2022/09/02 06:39:42;;;;;;;6.78;4.47;;;13.50;96.60;;;;;;5097696;28;20203;-87
2022/09/02 06:42:09;;;;;;;6.70;4.95;;;13.60;96.30;;;;;;5095681;28;20326;-87
2022/09/02 06:44:40;;;;;;;5.40;4.88;;;13.70;95.90;;;;;;5103434;28;20327;-87
2022/09/02 06:47:10;;;;;;;7.90;4.93;;;13.60;96.30;;;;;;5102013;28;20201;-87
2022/09/02 06:49:47;;;;;;;5.22;4.60;;;13.70;95.80;;;;;;5097921;28;20204;-86
2022/09/02 06:52:14;;;;;;;6.15;4.53;;;13.80;95.70;;;;;;5099301;28;20636;-86
2022/09/02 06:54:41;;;;;;;8.13;4.22;;;13.80;95.80;;;;;;5099009;28;20204;-86
2022/09/02 06:57:08;;;;;;;4.70;4.30;;;13.90;95.70;;;;;;5096943;28;20324;-87
2022/09/02 06:59:40;;;;;;;5.05;4.50;;;13.90;95.70;;;;;;5096086;28;20196;-87
2022/09/02 07:02:16;;;;;;;4.97;4.57;;;14.00;95.10;;;;;;5104222;28;20196;-87
2022/09/02 07:07:30;;;;;;;4.80;4.40;;;14.10;95.20;;;;;;5095475;28;20211;-87
2022/09/02 07:09:57;;;;;;;6.47;4.40;;;14.20;95.70;;;;;;5093113;28;20200;-87
2022/09/02 07:12:25;;;;;;;5.82;4.15;;;14.40;94.60;;;;;;5094569;28;20382;-87
2022/09/02 07:14:58;;;;;;;5.57;3.90;;;14.40;94.50;;;;;;5092038;28;20209;-87
2022/09/02 07:17:25;;;;;;;5.05;3.92;;;14.40;94.20;;;;;;5090247;28;20200;-87
2022/09/02 07:19:54;;;;;;;7.38;4.10;;;14.50;94.00;;;;;;5091981;28;20656;-87
2022/09/02 07:22:21;;;;;;;5.07;3.80;;;14.60;93.80;;;;;;5092168;28;20213;-87
2022/09/02 07:24:53;;;;;;;4.63;3.95;;;14.50;94.30;;;;;;5089143;28;20230;-87
2022/09/02 07:27:20;;;;;;;4.25;3.83;;;14.60;94.30;;;;;;5090581;28;20236;-87
2022/09/02 07:29:53;;;;;;;4.30;3.67;;;14.70;94.00;;;;;;5091971;28;20672;-88
2022/09/02 07:32:20;;;;;;;4.63;3.88;;;14.90;93.50;;;;;;5089477;28;20201;-87
2022/09/02 07:34:47;;;;;;;4.18;3.72;;;15.00;93.30;;;;;;5086595;28;20210;-87
2022/09/02 07:37:14;;;;;;;4.90;3.80;;;15.10;93.60;;;;;;5086919;28;20206;-87
2022/09/02 07:39:42;;;;;;;3.60;3.30;;;15.20;92.90;;;;;;5092088;28;20222;-87
2022/09/02 07:42:13;;;;;;;4.28;3.10;;;15.20;92.10;;;;;;5092181;28;20257;-87
2022/09/02 07:44:40;;;;;;;4.25;3.13;;;15.30;91.60;;;;;;5085062;28;20699;-86
2022/09/02 07:47:07;;;;;;;5.45;3.35;;;15.40;91.60;;;;;;5090497;28;20572;-87
2022/09/02 07:49:34;;;;;;;5.18;3.17;;;15.50;91.20;;;;;;5083910;28;20204;-87
2022/09/02 07:52:01;;;;;;;4.85;3.00;;;15.60;90.80;;;;;;5098053;28;20193;-87
2022/09/02 07:54:30;;;;;;;2.97;2.70;;;15.60;91.60;;;;;;5094256;28;20565;-87
2022/09/02 07:56:56;;;;;;;5.43;3.00;;;15.70;90.40;;;;;;5084759;28;20195;-87
2022/09/02 07:59:25;;;;;;;3.22;2.92;;;15.80;90.40;;;;;;5089691;28;20196;-86
2022/09/02 08:01:52;;;;;;;7.03;2.75;;;15.90;88.20;;;;;;5095927;28;20196;-89
2022/09/02 08:04:22;;;;;;;4.70;2.50;;;15.90;89.00;;;;;;5088262;28;20220;-87
2022/09/02 08:06:50;;;;;;;3.28;2.70;;;15.90;88.30;;;;;;5081292;28;20205;-87
2022/09/02 08:09:17;;;;;;;4.97;2.80;;;16.10;87.30;;;;;;5090819;28;20203;-86
2022/09/02 08:11:46;;;;;;;2.97;2.53;;;16.10;86.00;;;;;;5091550;28;20193;-86
2022/09/02 08:14:20;;;;;;;4.32;2.63;;;16.20;84.50;;;;;;5080883;28;20208;-86
2022/09/02 08:16:48;;;;;;;3.15;2.53;;;16.30;82.80;;;;;;5089610;28;20204;-86
2022/09/02 08:19:15;;;;;;;3.25;2.35;;;16.40;82.30;;;;;;5095703;28;20189;-86
2022/09/02 08:21:42;;;;;;;3.63;2.42;;;16.50;77.30;;;;;;5095738;28;20188;-85
2022/09/02 08:24:09;;;;;;;2.40;2.20;;;16.60;79.30;;;;;;5091907;28;20196;-86
2022/09/02 08:26:36;;;;;;;2.38;1.83;;;16.70;77.10;;;;;;5096167;28;20192;-84
2022/09/02 08:29:03;;;;;;;6.50;2.13;;;16.90;68.50;;;;;;5092938;28;20201;-85
2022/09/02 08:31:34;;;;;;;2.40;1.77;;;16.90;67.80;;;;;;5095749;28;20201;-90
2022/09/02 08:34:05;;;;;;;4.30;1.95;;;17.00;63.70;;;;;;5095288;28;20200;-86
2022/09/02 08:36:33;;;;;;;2.30;1.70;;;17.00;69.20;;;;;;5095432;28;20204;-86
2022/09/02 08:39:02;;;;;;;3.75;2.10;;;17.10;67.80;;;;;;5094849;28;20200;-86
2022/09/02 08:41:36;;;;;;;3.10;1.90;;;17.30;57.40;;;;;;5093954;28;20714;-87
2022/09/02 08:44:05;;;;;;;1.90;1.80;;;17.40;58.80;;;;;;5094902;28;20777;-86
2022/09/02 08:46:34;;;;;;;3.60;1.50;;;17.50;49.40;;;;;;5100200;28;20224;-86
2022/09/02 08:49:09;;;;;;;2.55;1.80;;;17.60;48.50;;;;;;5090894;28;20200;-89
2022/09/02 08:51:41;;;;;;;3.72;1.70;;;17.60;45.90;;;;;;5095431;28;20207;-87
2022/09/02 08:54:13;;;;;;;1.65;1.55;;;17.60;45.30;;;;;;5097063;28;20196;-86
2022/09/02 08:56:47;;;;;;;3.42;1.70;;;17.70;39.90;;;;;;5103799;28;20647;-87
2022/09/02 08:59:14;;;;;;;2.05;1.58;;;17.80;41.40;;;;;;5094783;28;20200;-86
2022/09/02 09:01:51;;;;;;;1.85;1.50;;;17.90;42.00;;;;;;5102502;28;20201;-86
2022/09/02 09:04:30;;;;;;;1.70;1.60;;;18.00;39.60;;;;;;5093615;28;20639;-86
2022/09/02 09:07:20;;;;;;;1.55;1.45;;;18.50;41.70;;;;;;5097549;28;20204;-87
2022/09/02 09:10:04;;;;;;;3.20;1.88;;;19.30;34.50;;;;;;5096395;28;20197;-87
2022/09/02 09:12:55;;;;;;;2.25;1.65;;;20.40;32.40;;;;;;5099495;28;20201;-84
2022/09/02 09:15:32;;;;;;;2.92;1.60;;;22.50;24.40;;;;;;5092793;28;20196;-82
2022/09/02 09:18:01;;;;;;;1.60;1.50;;;24.60;18.60;;;;;;5099087;28;20192;-82
2022/09/02 09:20:32;;;;;;;2.10;1.67;;;26.20;15.50;;;;;;5098178;28;20281;-84
2022/09/02 09:23:01;;;;;;;3.92;1.90;;;26.90;15.10;;;;;;5094202;28;20192;-86
2022/09/02 09:25:34;;;;;;;3.90;1.80;;;27.80;12.10;;;;;;5094386;28;20234;-85
2022/09/02 09:28:01;;;;;;;1.90;1.80;;;28.50;11.40;;;;;;5086693;28;20188;-86
2022/09/02 09:30:34;;;;;;;2.58;1.90;;;28.60;11.20;;;;;;5089947;28;20197;-86
2022/09/02 09:33:01;;;;;;;1.77;1.67;;;28.40;10.70;;;;;;5095932;28;20547;-85
2022/09/02 09:35:47;;;;;;;2.10;1.90;;;28.30;11.30;;;;;;5095922;28;20208;-85
2022/09/02 09:38:14;;;;;;;2.70;1.88;;;29.20;9.50;;;;;;5089757;28;20203;-87
2022/09/02 09:40:41;;;;;;;1.90;1.80;;;29.30;9.20;;;;;;5092500;28;20193;-87
2022/09/02 09:43:13;;;;;;;5.78;2.35;;;29.20;9.00;;;;;;5091494;28;20203;-86
2022/09/02 09:45:42;;;;;;;2.72;1.92;;;29.40;7.30;;;;;;5092465;28;20697;-86
2022/09/02 09:48:24;;;;;;;2.65;2.08;;;30.60;6.60;;;;;;5092639;28;20192;-86
2022/09/02 09:51:14;;;;;;;3.10;2.03;;;30.20;7.10;;;;;;5085632;28;20196;-85
2022/09/02 09:53:46;;;;;;;2.28;1.98;;;30.50;6.20;;;;;;5093229;28;20739;-86
2022/09/02 09:56:26;;;;;;;2.78;1.92;;;29.00;8.90;;;;;;5093782;28;20200;-87
2022/09/02 09:58:53;;;;;;;3.95;1.98;;;28.50;8.50;;;;;;5087003;28;20199;-86
2022/09/02 10:01:30;;;;;;;2.53;2.13;;;28.30;9.20;;;;;;5093181;28;20196;-86
2022/09/02 10:04:00;;;;;;;5.85;2.05;;;28.00;9.80;;;;;;5086438;28;20709;-86
2022/09/02 10:06:39;;;;;;;2.03;1.92;;;27.70;12.00;;;;;;5087954;28;20227;-86
2022/09/02 10:09:25;;;;;;;2.20;2.00;;;28.20;9.90;;;;;;5093386;28;20196;-86
2022/09/02 10:11:56;;;;;;;2.45;2.08;;;28.50;10.00;;;;;;5089072;28;20665;-86
2022/09/02 10:14:33;;;;;;;2.00;1.80;;;28.50;8.40;;;;;;5091843;28;20606;-86
2022/09/02 10:17:24;;;;;;;2.40;2.20;;;28.50;8.00;;;;;;5094565;28;20610;-86
2022/09/02 10:19:55;;;;;;;1.83;1.73;;;29.40;7.20;;;;;;5084941;28;20204;-86
2022/09/02 10:22:51;;;;;;;3.33;1.77;;;29.10;7.60;;;;;;5089718;28;20211;-86
2022/09/02 10:25:27;;;;;;;1.83;1.73;;;28.50;8.30;;;;;;5093812;28;20228;-83
2022/09/02 10:28:03;;;;;;;2.42;2.00;;;28.20;8.10;;;;;;5093008;28;20572;-84
2022/09/02 10:30:35;;;;;;;2.25;2.05;;;28.20;11.00;;;;;;5090593;28;20191;-85
2022/09/02 10:33:25;;;;;;;1.80;1.70;;;27.80;10.90;;;;;;5082316;28;20224;-82
2022/09/02 10:36:07;;;;;;;3.17;1.70;;;28.00;9.40;;;;;;5090885;28;20212;-84
2022/09/02 10:38:43;;;;;;;3.88;1.80;;;27.50;8.80;;;;;;5092921;28;20208;-84
2022/09/02 10:41:23;;;;;;;2.90;1.88;;;27.70;9.00;;;;;;5084069;28;20192;-84
2022/09/02 10:44:14;;;;;;;2.10;1.80;;;28.20;7.80;;;;;;5083866;28;20219;-84
2022/09/02 10:46:51;;;;;;;6.20;2.25;;;28.00;8.40;;;;;;5026126;28;20316;-86
2022/09/02 10:49:28;;;;;;;2.20;1.67;;;27.60;9.10;;;;;;5028502;28;20193;-85
2022/09/02 10:52:05;;;;;;;3.65;1.90;;;27.80;8.10;;;;;;5026581;28;20220;-85
2022/09/02 10:54:46;;;;;;;2.95;1.80;;;28.10;7.90;;;;;;5028997;28;20213;-85
2022/09/02 10:57:18;;;;;;;1.77;1.67;;;27.40;9.50;;;;;;5030371;28;20198;-85
2022/09/02 10:59:52;;;;;;;3.17;1.70;;;27.40;10.10;;;;;;5031510;28;20202;-86
2022/09/02 11:02:25;;;;;;;5.68;1.98;;;27.20;9.40;;;;;;5024661;28;20194;-86
2022/09/02 11:04:58;;;;;;;1.92;1.73;;;27.10;10.60;;;;;;5029458;28;20198;-86
2022/09/02 11:07:33;;;;;;;1.80;1.70;;;25.30;14.30;;;;;;5026855;28;20256;-85
2022/09/02 11:10:09;;;;;;;2.70;1.50;;;25.00;13.50;;;;;;5030816;28;20280;-83
2022/09/02 11:12:46;;;;;;;3.63;1.73;;;24.30;13.70;;;;;;5036053;28;20198;-84
2022/09/02 11:15:20;;;;;;;8.32;1.80;;;24.00;13.50;;;;;;5026373;28;20203;-86
2022/09/02 11:18:00;;;;;;;2.05;1.40;;;23.70;14.50;;;;;;5031999;28;20193;-86
2022/09/02 11:20:35;;;;;;;3.70;1.70;;;23.60;13.30;;;;;;5032255;28;20697;-86
2022/09/02 11:23:09;;;;;;;1.50;1.40;;;23.50;13.20;;;;;;5043113;28;20223;-87
2022/09/02 11:25:42;;;;;;;2.50;1.70;;;23.50;13.30;;;;;;5097077;28;20581;-89
2022/09/02 11:28:28;;;;;;;1.58;1.33;;;23.40;14.00;;;;;;5098538;28;20192;-86
2022/09/02 11:31:01;;;;;;;2.35;1.42;;;23.00;14.50;;;;;;5091063;28;20240;-87
2022/09/02 11:33:33;;;;;;;3.20;1.60;;;22.90;14.40;;;;;;5097136;28;20196;-86
2022/09/02 11:36:00;;;;;;;2.95;1.42;;;22.80;15.40;;;;;;5098352;28;20558;-86
2022/09/02 11:38:34;;;;;;;1.80;1.60;;;22.70;16.70;;;;;;5095315;28;20200;-87
2022/09/02 11:41:36;;;;;;;4.30;1.90;;;22.60;15.80;;;;;;5095875;28;20199;-86
2022/09/02 11:44:28;;;;;;;2.25;1.40;;;22.60;16.90;;;;;;5096032;28;20220;-86
2022/09/02 11:47:31;;;;;;;3.13;1.60;;;22.50;17.90;;;;;;5089304;28;20231;-87
2022/09/02 11:50:21;;;;;;;3.17;1.35;;;22.40;16.10;;;;;;5096935;28;20192;-87
2022/09/02 11:53:04;;;;;;;1.70;1.40;;;22.40;15.50;;;;;;5088531;28;20197;-88
2022/09/02 11:55:36;;;;;;;3.05;1.52;;;22.60;16.70;;;;;;5092420;28;20200;-87
2022/09/02 11:58:05;;;;;;;2.03;1.40;;;22.70;16.40;;;;;;5093798;28;20196;-86
2022/09/02 12:00:36;;;;;;;6.82;3.88;;;22.80;16.70;;;;;;5094928;28;20207;-87
2022/09/02 12:03:14;;;;;;;2.00;1.85;;;22.70;15.80;;;;;;5088228;28;20196;-86
2022/09/02 12:05:51;;;;;;;1.85;1.63;;;22.70;16.70;;;;;;5089114;28;20229;-86
2022/09/02 12:09:11;;;;;;;2.58;1.90;;;22.70;17.40;;;;;;5093693;28;20234;-86
2022/09/02 12:11:45;;;;;;;1.92;1.48;;;22.70;16.50;;;;;;5087734;28;20264;-86
2022/09/02 12:15:02;;;;;;;5.82;1.60;;;22.70;17.20;;;;;;5086730;28;20249;-87
2022/09/02 12:18:06;;;;;;;5.38;1.70;;;22.70;17.60;;;;;;5086212;28;20260;-86
2022/09/02 12:21:10;;;;;;;1.83;1.60;;;22.50;17.90;;;;;;5089812;28;20273;-87
2022/09/02 12:24:09;;;;;;;1.75;1.50;;;22.50;19.20;;;;;;5083624;28;20196;-87
2022/09/02 12:27:18;;;;;;;2.55;1.60;;;22.40;17.30;;;;;;5090372;28;20231;-87
2022/09/02 12:29:45;;;;;;;2.50;1.52;;;22.50;17.20;;;;;;5087286;28;20205;-86
2022/09/02 12:32:12;;;;;;;3.30;1.55;;;22.50;17.60;;;;;;5085303;28;20262;-89
2022/09/02 12:35:08;;;;;;;3.33;1.60;;;22.50;17.70;;;;;;5087047;28;20197;-88
2022/09/02 12:38:22;;;;;;;6.43;1.77;;;22.50;17.40;;;;;;5089354;28;20208;-87
2022/09/02 12:40:57;;;;;;;1.90;1.80;;;22.50;17.90;;;;;;5083164;28;20204;-86
2022/09/02 12:43:33;;;;;;;2.78;1.60;;;22.50;17.40;;;;;;5086910;28;20196;-86
2022/09/02 12:46:07;;;;;;;4.20;1.50;;;22.40;17.50;;;;;;5088239;28;20220;-87
2022/09/02 12:48:42;;;;;;;1.95;1.70;;;22.40;17.80;;;;;;5087369;28;20666;-86
2022/09/02 12:51:09;;;;;;;3.20;1.40;;;22.40;17.80;;;;;;5089106;28;20204;-87
2022/09/02 12:53:41;;;;;;;1.95;1.35;;;22.40;17.60;;;;;;5087853;28;20210;-88
2022/09/02 12:56:20;;;;;;;2.83;1.55;;;22.50;18.10;;;;;;5090592;28;20211;-88
2022/09/02 12:58:51;;;;;;;2.30;1.90;;;22.30;17.80;;;;;;5090677;28;20555;-87
2022/09/02 13:01:23;;;;;;;1.70;1.50;;;22.30;18.50;;;;;;5093100;28;20200;-86
2022/09/02 13:04:18;;;;;;;2.45;1.55;;;22.40;19.30;;;;;;5090504;28;20566;-86
2022/09/02 13:07:09;;;;;;;1.60;1.27;;;22.50;18.60;;;;;;5012362;28;20227;-87
2022/09/02 13:10:02;;;;;;;1.70;1.38;;;22.50;19.30;;;;;;5010197;28;20207;-86
2022/09/02 13:13:04;;;;;;;3.75;1.30;;;22.70;17.90;;;;;;5007008;28;20705;-87
2022/09/02 13:15:44;;;;;;;4.85;1.48;;;22.60;18.10;;;;;;5008133;28;20207;-87
2022/09/02 13:18:46;;;;;;;2.47;1.40;;;22.50;17.80;;;;;;5008342;28;20659;-87
2022/09/02 13:21:49;;;;;;;1.50;1.40;;;22.50;18.10;;;;;;4953456;28;20216;-85
2022/09/02 13:24:58;;;;;;;1.85;1.70;;;22.60;18.20;;;;;;4954450;29;20608;-87
2022/09/02 13:27:46;;;;;;;1.60;1.50;;;22.20;18.00;;;;;;4861398;29;20621;-88